Brentwood, New York
Current Conditions -  °F | °C
As of 4:56 PM on Monday 24 Nov 2014 (Local Time) from KISP Reporting Station
Haze Haze  
Wind Chill: 59°   Ceiling: Unl
Heat Index: 59°   Visibility: 2.5mi
Dew Point: 56°   Wind: 20mph
Humidity: 90%   Direction: 210°SSW
Pressure: 29.65"   Gusts: 28mph
Location:  40.78°N, 73.25°W
Report Text: KISP 242156Z 21017G24KT 2 1/2SM BR SCT008 SCT065 15/13 A2965 RMK AO2 PK WND 21028/2138 SFC VIS 6 SLP039 T01500133
Loading
Personal Weather Stations






























Interactive Weather Map New forecast layout! Learn more

10-Day Weather Forecast

Advertisements
Track Severe Weather on mobile